E20TWR-1 Weather Reports


time (UTC)temp
F
wind
direction
speed
knots
gust
knots
rain 1hr
in
rain 24hr
in
rain mn
in
humidity
%
barometer
mb
20260509134727 93 0 0.0 0.0 0.00 0.00 0.00 54 1008.0
20260509133702 93 0 0.0 0.0 0.00 0.00 0.00 54 1008.0
20260509132638 93 0 0.0 0.0 0.00 0.00 0.00 53 1007.0
20260509131614 94 0 0.0 0.0 0.00 0.00 0.00 53 1007.0
20260509130549 95 0 0.0 0.0 0.00 0.00 0.00 51 1007.0
20260509125524 99 0 0.0 0.0 0.00 0.00 0.00 45 1007.0
20260509124500 99 0 0.0 0.0 0.00 0.00 0.00 45 1007.0
20260509123436 99 0 0.0 0.0 0.00 0.00 0.00 45 1007.0
20260509122411 99 0 0.0 0.0 0.00 0.00 0.00 44 1007.0
20260509121347 98 0 0.0 0.0 0.00 0.00 0.00 44 1007.0
20260509120323 97 0 0.0 0.0 0.00 0.00 0.00 45 1007.0
20260509115258 95 0 0.0 0.0 0.00 0.00 0.00 48 1006.0
20260509114234 101 0 0.0 0.0 0.00 0.00 0.00 40 1006.0
20260509113209 102 0 0.0 0.0 0.00 0.00 0.00 39 1006.0
20260509112145 103 0 0.0 0.0 0.00 0.00 0.00 39 1006.0
20260509111120 103 0 0.0 0.0 0.00 0.00 0.00 38 1006.0
20260509110055 103 0 0.0 0.0 0.00 0.00 0.00 38 1006.0
20260509105031 103 0 0.0 0.0 0.00 0.00 0.00 38 1006.0
20260509104006 104 0 0.0 0.0 0.00 0.00 0.00 38 1006.0
20260509102942 105 0 0.0 0.0 0.00 0.00 0.00 36 1006.0
20260509101918 106 0 0.0 0.0 0.00 0.00 0.00 36 1006.0
20260509100853 106 0 0.0 0.0 0.00 0.00 0.00 37 1005.0
20260509095829 106 0 0.0 0.0 0.00 0.00 0.00 37 1005.0
20260509094804 106 0 0.0 0.0 0.00 0.00 0.00 37 1005.0
20260509093740 106 0 0.0 0.0 0.00 0.00 0.00 37 1005.0
20260509092716 105 0 0.0 0.0 0.00 0.00 0.00 39 1005.0
20260509091651 104 0 0.0 0.0 0.00 0.00 0.00 39 1005.0
20260509090627 104 0 0.0 0.0 0.00 0.00 0.00 40 1005.0
20260509085602 103 0 0.0 0.0 0.00 0.00 0.00 40 1006.0
20260509084538 103 0 0.0 0.0 0.00 0.00 0.00 40 1005.0
20260509083514 103 0 0.0 0.0 0.00 0.00 0.00 40 1006.0
20260509082449 103 0 0.0 0.0 0.00 0.00 0.00 41 1006.0
20260509081424 102 0 0.0 0.0 0.00 0.00 0.00 41 1006.0
20260509080400 102 0 0.0 0.0 0.00 0.00 0.00 42 1007.0
20260509075335 102 0 0.0 0.0 0.00 0.00 0.00 41 1007.0
20260509074311 102 0 0.0 0.0 0.00 0.00 0.00 41 1007.0
20260509073246 103 0 0.0 0.0 0.00 0.00 0.00 42 1007.0
20260509072222 102 0 0.0 0.0 0.00 0.00 0.00 42 1007.0
20260509071157 102 0 0.0 0.0 0.00 0.00 0.00 42 1007.0
20260509070133 102 0 0.0 0.0 0.00 0.00 0.00 42 1008.0
20260509065109 103 0 0.0 0.0 0.00 0.00 0.00 42 1008.0
20260509064044 103 0 0.0 0.0 0.00 0.00 0.00 42 1008.0
20260509063020 102 0 0.0 0.0 0.00 0.00 0.00 43 1008.0
20260509061955 102 0 0.0 0.0 0.00 0.00 0.00 43 1009.0
20260509060931 101 0 0.0 0.0 0.00 0.00 0.00 43 1009.0
20260509055907 101 0 0.0 0.0 0.00 0.00 0.00 44 1009.0
20260509054842 100 0 0.0 0.0 0.00 0.00 0.00 45 1009.0
20260509053818 100 0 0.0 0.0 0.00 0.00 0.00 45 1009.0
20260509052754 99 0 0.0 0.0 0.00 0.00 0.00 46 1010.0
20260509051729 99 0 0.0 0.0 0.00 0.00 0.00 46 1010.0
20260509050705 99 0 0.0 0.0 0.00 0.00 0.00 46 1010.0
20260509045640 99 0 0.0 0.0 0.00 0.00 0.00 46 1010.0
20260509044615 99 0 0.0 0.0 0.00 0.00 0.00 46 1010.0
20260509043551 99 0 0.0 0.0 0.00 0.00 0.00 47 1011.0
20260509042526 98 0 0.0 0.0 0.00 0.00 0.00 47 1011.0
20260509041502 98 0 0.0 0.0 0.00 0.00 0.00 47 1011.0
20260509040437 98 0 0.0 0.0 0.00 0.00 0.00 48 1011.0
20260509035413 98 0 0.0 0.0 0.00 0.00 0.00 48 1011.0
20260509034348 98 0 0.0 0.0 0.00 0.00 0.00 48 1011.0
20260509033324 97 0 0.0 0.0 0.00 0.00 0.00 49 1011.0
20260509032259 97 0 0.0 0.0 0.00 0.00 0.00 50 1012.0
20260509031235 96 0 0.0 0.0 0.00 0.00 0.00 51 1012.0
20260509030211 96 0 0.0 0.0 0.00 0.00 0.00 51 1012.0
20260509025146 95 0 0.0 0.0 0.00 0.00 0.00 51 1012.0
20260509024122 95 0 0.0 0.0 0.00 0.00 0.00 51 1012.0
20260509023058 95 0 0.0 0.0 0.00 0.00 0.00 51 1012.0
20260509022033 95 0 0.0 0.0 0.00 0.00 0.00 51 1012.0
20260509021009 95 0 0.0 0.0 0.00 0.00 0.00 51 1012.0
20260509015945 95 0 0.0 0.0 0.00 0.00 0.00 52 1012.0
20260509014920 95 0 0.0 0.0 0.00 0.00 0.00 51 1012.0
20260509013855 95 0 0.0 0.0 0.00 0.00 0.00 51 1012.0
20260509012831 95 0 0.0 0.0 0.00 0.00 0.00 51 1012.0
20260509011806 96 0 0.0 0.0 0.00 0.00 0.00 50 1012.0
20260509010742 95 0 0.0 0.0 0.00 0.00 0.00 50 1012.0
20260509005717 95 0 0.0 0.0 0.00 0.00 0.00 51 1012.0
20260509004653 95 0 0.0 0.0 0.00 0.00 0.00 51 1011.0
20260509003628 95 0 0.0 0.0 0.00 0.00 0.00 51 1011.0
20260509002604 95 0 0.0 0.0 0.00 0.00 0.00 51 1011.0
20260509001539 95 0 0.0 0.0 0.00 0.00 0.00 51 1011.0
20260509000515 95 0 0.0 0.0 0.00 0.00 0.00 51 1011.0
20260508235451 94 0 0.0 0.0 0.00 0.00 0.00 51 1011.0
20260508234426 94 0 0.0 0.0 0.00 0.00 0.00 52 1011.0
20260508233401 94 0 0.0 0.0 0.00 0.00 0.00 52 1011.0
20260508232337 94 0 0.0 0.0 0.00 0.00 0.00 52 1011.0
20260508231313 93 0 0.0 0.0 0.00 0.00 0.00 53 1011.0
20260508230248 93 0 0.0 0.0 0.00 0.00 0.00 53 1011.0
20260508225224 93 0 0.0 0.0 0.00 0.00 0.00 53 1010.0
20260508224159 93 0 0.0 0.0 0.00 0.00 0.00 54 1010.0
20260508223135 93 0 0.0 0.0 0.00 0.00 0.00 54 1010.0
20260508222110 92 0 0.0 0.0 0.00 0.00 0.00 54 1010.0
20260508221046 91 0 0.0 0.0 0.00 0.00 0.00 56 1010.0
20260508220021 88 0 0.0 0.0 0.00 0.00 0.00 60 1010.0
20260508214957 85 0 0.0 0.0 0.00 0.00 0.00 64 1010.0
20260508162355 98 0 0.0 0.0 0.00 0.00 0.00 45 1010.0
20260508161330 98 0 0.0 0.0 0.00 0.00 0.00 45 1010.0
20260508160306 98 0 0.0 0.0 0.00 0.00 0.00 45 1010.0
20260508155241 98 0 0.0 0.0 0.00 0.00 0.00 45 1010.0
20260508154217 98 0 0.0 0.0 0.00 0.00 0.00 45 1010.0
20260508153152 98 0 0.0 0.0 0.00 0.00 0.00 45 1011.0
20260508152128 98 0 0.0 0.0 0.00 0.00 0.00 45 1011.0
20260508151104 98 0 0.0 0.0 0.00 0.00 0.00 45 1011.0
20260508150039 98 0 0.0 0.0 0.00 0.00 0.00 45 1011.0
20260508145015 98 0 0.0 0.0 0.00 0.00 0.00 45 1011.0
20260508143951 98 0 0.0 0.0 0.00 0.00 0.00 45 1011.0
20260508142926 98 0 0.0 0.0 0.00 0.00 0.00 45 1011.0
20260508141902 98 0 0.0 0.0 0.00 0.00 0.00 45 1010.0
20260508140837 98 0 0.0 0.0 0.00 0.00 0.00 45 1010.0
20260508135813 98 0 0.0 0.0 0.00 0.00 0.00 45 1010.0